createdAt,value
2022-11-16T00:01:27.145Z,100133.41
2022-11-16T00:06:21.940Z,100119.09
2022-11-16T00:11:17.144Z,100095.28
2022-11-16T00:16:30.898Z,100105.63
2022-11-16T00:21:26.095Z,100091.63
2022-11-16T00:26:19.208Z,100096.09
2022-11-16T00:31:16.304Z,100085.72
2022-11-16T00:36:12.932Z,100089.94
2022-11-16T00:41:07.530Z,100075.72
2022-11-16T00:46:01.294Z,100066.00
2022-11-16T00:50:56.345Z,100060.78
2022-11-16T00:55:50.435Z,100043.22
2022-11-16T01:00:45.927Z,100051.13
2022-11-16T01:05:39.466Z,100040.53
2022-11-16T01:10:33.354Z,100011.56
2022-11-16T01:15:29.888Z,100016.84
2022-11-16T01:20:27.977Z,100029.44
2022-11-16T01:25:22.194Z,100011.00
2022-11-16T01:30:16.694Z,100005.38
2022-11-16T01:35:19.771Z,99998.25
2022-11-16T01:40:14.913Z,99988.72
2022-11-16T01:45:54.185Z,99958.56
2022-11-16T01:51:00.326Z,99992.00
2022-11-16T01:55:56.453Z,99968.97
2022-11-16T02:01:09.756Z,99974.53
2022-11-16T02:06:31.493Z,99955.34
2022-11-16T02:12:10.080Z,99954.03
2022-11-16T02:17:09.372Z,99957.53
2022-11-16T02:22:13.776Z,99939.81
2022-11-16T02:27:40.457Z,99934.78
2022-11-16T02:33:22.402Z,99921.41
2022-11-16T02:38:32.177Z,99931.78
2022-11-16T02:43:31.492Z,99908.38
2022-11-16T02:48:30.549Z,99880.75
2022-11-16T02:53:24.973Z,99888.50
2022-11-16T02:58:25.920Z,99878.88
2022-11-16T03:03:19.309Z,99866.47
2022-11-16T03:08:21.542Z,99875.25
2022-11-16T03:13:17.888Z,99870.09
2022-11-16T03:18:17.130Z,99868.19
2022-11-16T03:23:12.099Z,99857.06
2022-11-16T03:28:22.727Z,99848.75
2022-11-16T03:33:43.936Z,99854.06
2022-11-16T03:38:38.724Z,99846.38
2022-11-16T03:43:34.309Z,99845.16
2022-11-16T03:48:46.414Z,99828.28
2022-11-16T03:53:47.549Z,99826.81
2022-11-16T03:58:41.362Z,99821.44
2022-11-16T04:03:35.246Z,99808.19
2022-11-16T04:08:47.192Z,99822.38
2022-11-16T04:13:59.391Z,99807.28
2022-11-16T04:19:12.874Z,99808.97
2022-11-16T04:24:13.321Z,99832.84
2022-11-16T04:29:07.429Z,99830.34
2022-11-16T04:34:38.027Z,99824.06
2022-11-16T04:39:37.481Z,99812.41
2022-11-16T04:44:53.426Z,99788.75
2022-11-16T04:49:48.097Z,99791.22
2022-11-16T04:54:42.147Z,99794.81
2022-11-16T04:59:36.112Z,99798.56
2022-11-16T05:04:30.244Z,99803.75
2022-11-16T05:09:24.314Z,99803.75
2022-11-16T05:14:17.864Z,99785.19
2022-11-16T05:19:28.380Z,99777.09
2022-11-16T05:24:34.604Z,99765.66
2022-11-16T05:29:29.510Z,99767.56
2022-11-16T05:34:24.334Z,99759.16
2022-11-16T05:39:17.441Z,99756.13
2022-11-16T05:44:11.528Z,99744.78
2022-11-16T05:49:08.736Z,99778.31
2022-11-16T05:54:02.974Z,99783.63
2022-11-16T05:58:56.725Z,99775.78
2022-11-16T06:03:51.534Z,99733.38
2022-11-16T06:08:44.585Z,99766.16
2022-11-16T06:13:42.783Z,99754.69
2022-11-16T06:18:42.579Z,99762.16
2022-11-16T06:23:36.142Z,99791.31
2022-11-16T06:28:29.726Z,99776.75
2022-11-16T06:33:23.719Z,99772.06
2022-11-16T06:38:20.386Z,99756.47
2022-11-16T06:43:17.025Z,99768.69
2022-11-16T06:48:10.623Z,99753.84
2022-11-16T06:53:04.345Z,99770.72
2022-11-16T06:57:57.797Z,99759.03
2022-11-16T07:02:51.863Z,99746.00
2022-11-16T07:07:46.552Z,99744.31
2022-11-16T07:12:39.181Z,99764.47
2022-11-16T07:17:34.274Z,99762.03
2022-11-16T07:22:28.687Z,99732.13
2022-11-16T07:27:21.379Z,99751.44
2022-11-16T07:32:17.581Z,99744.06
2022-11-16T07:37:35.453Z,99751.66
2022-11-16T07:42:36.121Z,99754.31
2022-11-16T07:47:53.373Z,99753.47
2022-11-16T07:53:12.096Z,99736.63
2022-11-16T07:58:06.048Z,99727.94
2022-11-16T08:02:59.429Z,99692.75
2022-11-16T08:07:53.953Z,99675.16
2022-11-16T08:12:50.558Z,99681.44
2022-11-16T08:17:46.166Z,99665.53
2022-11-16T08:22:39.838Z,99687.09
2022-11-16T08:27:34.337Z,99682.50
2022-11-16T08:32:29.964Z,99675.28
2022-11-16T08:37:23.777Z,99699.97
2022-11-16T08:42:17.214Z,99694.06
2022-11-16T08:47:12.495Z,99687.34
2022-11-16T08:52:14.170Z,99689.28
2022-11-16T08:57:09.373Z,99708.56
2022-11-16T09:02:05.252Z,99709.75
2022-11-16T09:06:59.042Z,99734.56
2022-11-16T09:11:54.348Z,99724.06
2022-11-16T09:16:48.449Z,99719.50
2022-11-16T09:21:42.242Z,99700.69
2022-11-16T09:26:36.192Z,99697.47
2022-11-16T09:31:31.905Z,99710.56
2022-11-16T09:36:26.693Z,99725.41
2022-11-16T09:41:41.290Z,99722.25
2022-11-16T09:46:47.880Z,99713.22
2022-11-16T09:51:44.091Z,99705.38
2022-11-16T09:56:41.272Z,99700.84
2022-11-16T10:01:43.786Z,99682.88
2022-11-16T10:06:59.257Z,99666.38
2022-11-16T10:12:29.724Z,99659.53
2022-11-16T10:17:32.955Z,99669.41
2022-11-16T10:22:47.773Z,99671.91
2022-11-16T10:27:49.310Z,99649.41
2022-11-16T10:32:53.281Z,99616.59
2022-11-16T10:37:50.442Z,99631.44
2022-11-16T10:42:45.378Z,99629.53
2022-11-16T10:47:51.397Z,99639.03
2022-11-16T10:52:46.316Z,99620.59
2022-11-16T10:58:04.599Z,99614.47
2022-11-16T11:03:03.978Z,99600.38
2022-11-16T11:08:12.275Z,99586.41
2022-11-16T11:13:11.086Z,99578.34
2022-11-16T11:18:20.579Z,99566.66
2022-11-16T11:23:20.805Z,99563.50
2022-11-16T11:28:32.729Z,99543.28
2022-11-16T11:33:28.201Z,99556.28
2022-11-16T11:38:22.664Z,99544.63
2022-11-16T11:43:38.591Z,99546.66
2022-11-16T11:48:58.502Z,99531.72
2022-11-16T11:53:57.360Z,99543.78
2022-11-16T11:58:54.568Z,99551.84
2022-11-16T12:04:10.445Z,99512.72
2022-11-16T12:09:26.668Z,99519.09
2022-11-16T12:14:41.536Z,99560.75
2022-11-16T12:19:59.116Z,99524.69
2022-11-16T12:25:22.540Z,99517.34
2022-11-16T12:30:22.733Z,99502.81
2022-11-16T12:35:36.867Z,99495.34
2022-11-16T12:40:53.897Z,99506.63
2022-11-16T12:45:58.825Z,99482.78
2022-11-16T12:51:21.447Z,99488.28
2022-11-16T12:56:28.403Z,99481.53
2022-11-16T13:02:06.120Z,99475.41
2022-11-16T13:07:32.069Z,99476.13
2022-11-16T13:12:32.163Z,99469.00
2022-11-16T13:17:36.191Z,99465.44
2022-11-16T13:22:34.620Z,99472.03
2022-11-16T13:27:37.803Z,99464.94
2022-11-16T13:32:51.930Z,99451.41
2022-11-16T13:37:48.841Z,99427.88
2022-11-16T13:43:07.301Z,99426.91
2022-11-16T13:48:04.205Z,99414.66
2022-11-16T13:58:24.123Z,99422.38
2022-11-16T14:03:17.086Z,99451.34
2022-11-16T14:08:25.313Z,99447.59
2022-11-16T14:13:30.848Z,99443.13
2022-11-16T14:18:37.208Z,99439.66
2022-11-16T14:24:06.368Z,99440.75
2022-11-16T14:29:34.739Z,99445.78
2022-11-16T14:34:43.684Z,99393.25
2022-11-16T14:39:41.487Z,99442.44
2022-11-16T14:44:39.571Z,99437.13
2022-11-16T14:49:36.544Z,99415.50
2022-11-16T14:55:01.919Z,99430.72
2022-11-16T15:00:19.618Z,99433.03
2022-11-16T15:05:19.152Z,99404.59
2022-11-16T15:10:19.369Z,99411.69
2022-11-16T15:15:11.738Z,99412.69
2022-11-16T15:20:15.101Z,99404.75
2022-11-16T15:25:44.525Z,99404.47
2022-11-16T15:30:40.904Z,99375.63
2022-11-16T15:35:37.037Z,99381.59
2022-11-16T15:40:31.527Z,99347.25
2022-11-16T15:45:26.340Z,99394.38
2022-11-16T15:50:23.654Z,99391.75
2022-11-16T15:55:38.699Z,99404.03
2022-11-16T16:00:35.320Z,99416.19
2022-11-16T16:05:57.925Z,99425.81
2022-11-16T16:11:15.536Z,99424.00
2022-11-16T16:16:32.426Z,99411.59
2022-11-16T16:21:36.119Z,99406.53
2022-11-16T16:26:30.325Z,99401.56
2022-11-16T16:31:24.315Z,99416.28
2022-11-16T16:36:17.091Z,99426.97
2022-11-16T16:41:23.725Z,99409.00
2022-11-16T16:46:18.059Z,99405.06
2022-11-16T16:51:12.929Z,99426.53
2022-11-16T16:56:14.248Z,99418.44
2022-11-16T17:01:09.691Z,99445.09
2022-11-16T17:06:02.532Z,99444.94
2022-11-16T17:10:56.095Z,99438.69
2022-11-16T17:15:49.778Z,99438.53
2022-11-16T17:20:45.473Z,99446.63
2022-11-16T17:25:39.205Z,99446.78
2022-11-16T17:30:33.120Z,99438.59
2022-11-16T17:35:26.921Z,99460.47
2022-11-16T17:40:22.377Z,99476.38
2022-11-16T17:45:15.391Z,99458.72
2022-11-16T17:50:11.624Z,99477.25
2022-11-16T17:55:07.621Z,99477.72
2022-11-16T18:00:01.241Z,99494.69
2022-11-16T18:04:57.890Z,99489.41
2022-11-16T18:09:52.117Z,99478.94
2022-11-16T18:15:13.474Z,99491.31
2022-11-16T18:20:05.057Z,99482.47
2022-11-16T18:24:59.397Z,99467.84
2022-11-16T18:29:53.831Z,99494.78
2022-11-16T18:34:48.036Z,99494.28
2022-11-16T18:39:42.497Z,99484.81
2022-11-16T18:44:36.554Z,99505.00
2022-11-16T18:49:30.272Z,99513.81
2022-11-16T18:54:24.743Z,99503.06
2022-11-16T18:59:18.979Z,99486.44
2022-11-16T19:04:13.059Z,99459.00
2022-11-16T19:09:10.532Z,99500.38
2022-11-16T19:14:08.242Z,99476.78
2022-11-16T19:19:04.836Z,99483.91
2022-11-16T19:23:58.289Z,99511.22
2022-11-16T19:28:52.723Z,99495.69
2022-11-16T19:33:47.528Z,99471.41
2022-11-16T19:38:41.075Z,99453.63
2022-11-16T19:43:35.684Z,99482.72
2022-11-16T19:48:30.439Z,99481.41
2022-11-16T19:53:23.660Z,99475.97
2022-11-16T19:58:17.845Z,99496.03
2022-11-16T20:03:12.154Z,99498.81
2022-11-16T20:08:06.053Z,99491.84
2022-11-16T20:12:59.973Z,99493.25
2022-11-16T20:17:53.407Z,99482.34
2022-11-16T20:22:49.220Z,99482.72
2022-11-16T20:27:43.442Z,99502.44
2022-11-16T20:32:36.503Z,99511.13
2022-11-16T20:37:30.893Z,99513.41
2022-11-16T20:42:25.551Z,99515.84
2022-11-16T20:47:19.784Z,99480.09
2022-11-16T20:52:13.479Z,99498.47
2022-11-16T20:57:07.673Z,99485.03
2022-11-16T21:02:01.765Z,99473.09
2022-11-16T21:06:59.103Z,99485.03
2022-11-16T21:12:11.520Z,99483.53
2022-11-16T21:17:05.476Z,99491.16
2022-11-16T21:21:59.273Z,99502.25
2022-11-16T21:26:53.105Z,99481.41
2022-11-16T21:31:46.781Z,99486.00
2022-11-16T21:36:41.089Z,99502.03
2022-11-16T21:41:35.018Z,99480.81
2022-11-16T21:46:29.060Z,99483.81
2022-11-16T21:51:26.017Z,99481.91
2022-11-16T21:56:21.792Z,99474.81
2022-11-16T22:01:18.639Z,99481.22
2022-11-16T22:06:50.205Z,99515.00
2022-11-16T22:11:44.126Z,99518.91
2022-11-16T22:16:37.650Z,99503.13
2022-11-16T22:21:32.331Z,99514.22
2022-11-16T22:26:25.905Z,99537.19
2022-11-16T22:31:21.062Z,99505.69
2022-11-16T22:36:14.859Z,99521.44
2022-11-16T22:41:08.099Z,99539.97
2022-11-16T22:46:02.862Z,99517.81
2022-11-16T22:51:22.541Z,99536.50
2022-11-16T22:56:16.390Z,99524.91
2022-11-16T23:01:10.178Z,99514.28
2022-11-16T23:06:06.911Z,99493.59
2022-11-16T23:11:24.831Z,99493.94
2022-11-16T23:16:22.703Z,99460.63
2022-11-16T23:21:35.042Z,99465.75
2022-11-16T23:26:46.277Z,99469.13
2022-11-16T23:31:40.327Z,99483.47
2022-11-16T23:36:35.153Z,99453.50
2022-11-16T23:41:47.616Z,99459.28
2022-11-16T23:46:40.749Z,99462.94
2022-11-16T23:51:34.212Z,99464.91
2022-11-16T23:56:28.416Z,99446.78
